Welcome to Des Moines Iowa Weather. I am an independent private personal weather station on the Northwest Side of Des Moines, Iowa. Just East of Windsor Heights and just West of Glendale . This site is also mobile friendly.

There are no active watches, warnings or advisories


Visit our other weather sites:

Historical Data

Weather Station Setup



Weather Underground History page Text

Daily Summary for January 29, 2018 Units:  Metric    English   Both
« Previous Day
Next Day »
Daily Weekly Monthly Yearly Custom
  High: Low: Average:
Temperature: -4.1 °C -10 °C -7.6 °C
Dew Point: -10 °C -12.2 °C -11.3 °C
Humidity: 85 % 61 % 75 %
Wind Speed: 11.3 km/h 0 km/h 2.7 km/h
Wind Gust: 17.7 km/h - -
Wind:- - NNE
Pressure: 1038.8 hPa 1034.8 hPa -
Precipitation: 0 mm    
Historical Graphs
 
 
Tabular Data for January 29, 2018
Time Temperature Dew Point Pressure Wind Wind Speed Wind Gust Humidity Rainfall Rate (Hourly)
00:13 -8.3 °C -11.7 °C 1036.1 hPa North 6.4 km/h 12.9 km/h 78 % 0 mm
00:28 -8.4 °C -11.7 °C 1036.5 hPa North 4.8 km/h 12.9 km/h 78 % 0 mm
00:43 -8.6 °C -11.7 °C 1036.5 hPa NNE 8 km/h 17.7 km/h 78 % 0 mm
00:58 -8.8 °C -11.7 °C 1036.5 hPa North 6.4 km/h 17.7 km/h 79 % 0 mm
01:13 -9 °C -11.7 °C 1036.5 hPa Calm   14.5 km/h 80 % 0 mm
01:28 -9.1 °C -11.7 °C 1036.1 hPa North 1.6 km/h 14.5 km/h 80 % 0 mm
01:43 -9.2 °C -12.2 °C 1036.1 hPa North 4.8 km/h 12.9 km/h 80 % 0 mm
01:58 -9.5 °C -12.2 °C 1036.1 hPa North 3.2 km/h 8 km/h 81 % 0 mm
02:13 -9.7 °C -12.2 °C 1036.5 hPa North 3.2 km/h 6.4 km/h 81 % 0 mm
02:28 -9.8 °C -12.2 °C 1036.5 hPa North 1.6 km/h 8 km/h 82 % 0 mm
02:48 -9.9 °C -12.2 °C 1036.5 hPa North 3.2 km/h 8 km/h 83 % 0 mm
02:59 -9.9 °C -12.2 °C 1036.5 hPa Calm   8 km/h 84 % 0 mm
03:17 -10 °C -12.2 °C 1036.5 hPa North 3.2 km/h 9.7 km/h 84 % 0 mm
03:29 -9.9 °C -12.2 °C 1036.5 hPa Calm   8 km/h 85 % 0 mm
03:44 -9.9 °C -11.7 °C 1036.8 hPa Calm   8 km/h 85 % 0 mm
03:59 -9.8 °C -11.7 °C 1036.5 hPa North 3.2 km/h 9.7 km/h 85 % 0 mm
04:14 -9.8 °C -11.7 °C 1036.5 hPa North 1.6 km/h 9.7 km/h 85 % 0 mm
04:29 -9.7 °C -11.7 °C 1036.5 hPa North 1.6 km/h 6.4 km/h 84 % 0 mm
04:44 -9.7 °C -11.7 °C 1036.5 hPa North 1.6 km/h 9.7 km/h 84 % 0 mm
04:59 -9.6 °C -12.2 °C 1036.8 hPa North 1.6 km/h 9.7 km/h 83 % 0 mm
05:14 -9.6 °C -11.7 °C 1036.8 hPa North 9.7 km/h 9.7 km/h 83 % 0 mm
05:29 -9.5 °C -11.7 °C 1037.1 hPa North 3.2 km/h 9.7 km/h 83 % 0 mm
05:44 -9.5 °C -11.7 °C 1037.1 hPa North 3.2 km/h 12.9 km/h 83 % 0 mm
05:59 -9.4 °C -11.7 °C 1037.1 hPa North 4.8 km/h 16.1 km/h 83 % 0 mm
06:14 -9.2 °C -11.7 °C 1037.1 hPa North 6.4 km/h 14.5 km/h 83 % 0 mm
06:29 -9.1 °C -11.7 °C 1037.1 hPa North 6.4 km/h 12.9 km/h 82 % 0 mm
06:44 -8.9 °C -11.7 °C 1037.1 hPa North 6.4 km/h 16.1 km/h 82 % 0 mm
06:59 -9 °C -11.7 °C 1037.1 hPa North 3.2 km/h 12.9 km/h 82 % 0 mm
07:14 -9.1 °C -11.7 °C 1037.1 hPa North 4.8 km/h 9.7 km/h 82 % 0 mm
07:29 -9.2 °C -11.7 °C 1037.1 hPa North 6.4 km/h 9.7 km/h 82 % 0 mm
07:44 -9.2 °C -11.7 °C 1037.5 hPa North 4.8 km/h 9.7 km/h 82 % 0 mm
07:59 -9.3 °C -11.7 °C 1037.5 hPa North 6.4 km/h 9.7 km/h 82 % 0 mm
08:14 -9.5 °C -12.2 °C 1037.8 hPa North 4.8 km/h 14.5 km/h 82 % 0 mm
08:29 -9.6 °C -12.2 °C 1038.1 hPa North 4.8 km/h 9.7 km/h 82 % 0 mm
08:44 -9.6 °C -12.2 °C 1038.1 hPa North 3.2 km/h 12.9 km/h 82 % 0 mm
08:59 -9.6 °C -12.2 °C 1038.1 hPa North 6.4 km/h 14.5 km/h 82 % 0 mm
09:14 -9.5 °C -12.2 °C 1038.1 hPa North 3.2 km/h 8 km/h 82 % 0 mm
09:29 -9.4 °C -11.7 °C 1038.1 hPa North 1.6 km/h 14.5 km/h 82 % 0 mm
09:44 -9.2 °C -11.7 °C 1038.1 hPa North 3.2 km/h 6.4 km/h 82 % 0 mm
09:59 -9.2 °C -12.2 °C 1038.1 hPa North 4.8 km/h 14.5 km/h 80 % 0 mm
10:14 -8.9 °C -11.7 °C 1038.1 hPa NNE 3.2 km/h 14.5 km/h 79 % 0 mm
10:29 -8.4 °C -11.7 °C 1038.5 hPa Calm   12.9 km/h 77 % 0 mm
10:45 -7.9 °C -11.7 °C 1038.5 hPa NNE 4.8 km/h 12.9 km/h 76 % 0 mm
11:00 -7.7 °C -11.7 °C 1038.8 hPa North 6.4 km/h 16.1 km/h 73 % 0 mm
11:15 -7.2 °C -11.1 °C 1038.5 hPa North 6.4 km/h 9.7 km/h 73 % 0 mm
11:30 -7.2 °C -11.1 °C 1038.5 hPa Calm   14.5 km/h 73 % 0 mm
11:45 -7 °C -11.7 °C 1038.1 hPa North 3.2 km/h 9.7 km/h 71 % 0 mm
12:00 -6.6 °C -11.1 °C 1037.5 hPa North 6.4 km/h 12.9 km/h 71 % 0 mm
12:15 -6.3 °C -11.1 °C 1037.1 hPa Calm   12.9 km/h 69 % 0 mm
12:30 -5.6 °C -10.6 °C 1036.8 hPa NNE 3.2 km/h 8 km/h 67 % 0 mm
12:45 -5.1 °C -10.6 °C 1036.5 hPa North 8 km/h 8 km/h 65 % 0 mm
13:00 -4.8 °C -10 °C 1036.1 hPa North 1.6 km/h 9.7 km/h 67 % 0 mm
13:15 -4.8 °C -11.1 °C 1036.1 hPa North 1.6 km/h 8 km/h 63 % 0 mm
13:30 -4.3 °C -10 °C 1035.8 hPa North 1.6 km/h 9.7 km/h 64 % 0 mm
13:45 -4.3 °C -10.6 °C 1035.8 hPa North 4.8 km/h 12.9 km/h 63 % 0 mm
14:00 -4.1 °C -10 °C 1035.8 hPa Calm   9.7 km/h 64 % 0 mm
14:15 -4.3 °C -10.6 °C 1035.4 hPa North 1.6 km/h 8 km/h 62 % 0 mm
14:30 -4.4 °C -10.6 °C 1035.4 hPa North 11.3 km/h 14.5 km/h 63 % 0 mm
14:45 -4.4 °C -10.6 °C 1035.8 hPa North 1.6 km/h 14.5 km/h 62 % 0 mm
15:00 -4.3 °C -10.6 °C 1035.8 hPa North 6.4 km/h 12.9 km/h 62 % 0 mm
15:15 -4.6 °C -11.1 °C 1035.8 hPa North 3.2 km/h 12.9 km/h 61 % 0 mm
15:30 -4.4 °C -11.1 °C 1035.4 hPa North 6.4 km/h 14.5 km/h 61 % 0 mm
15:45 -4.2 °C -10.6 °C 1035.4 hPa North 1.6 km/h 9.7 km/h 62 % 0 mm
16:00 -4.4 °C -10.6 °C 1035.4 hPa North 3.2 km/h 8 km/h 62 % 0 mm
16:15 -4.5 °C -11.1 °C 1035.4 hPa North 4.8 km/h 8 km/h 62 % 0 mm
16:30 -4.6 °C -11.1 °C 1035.4 hPa North 1.6 km/h 12.9 km/h 62 % 0 mm
16:45 -4.6 °C -10.6 °C 1035.4 hPa North 1.6 km/h 3.2 km/h 63 % 0 mm
17:00 -4.8 °C -10.6 °C 1035.4 hPa North 3.2 km/h 6.4 km/h 64 % 0 mm
17:15 -4.9 °C -10.6 °C 1035.8 hPa North 4.8 km/h 8 km/h 64 % 0 mm
17:30 -5.1 °C -10.6 °C 1035.8 hPa North 1.6 km/h 9.7 km/h 65 % 0 mm
17:45 -5.3 °C -10.6 °C 1035.8 hPa Calm   4.8 km/h 66 % 0 mm
18:00 -5.5 °C -10.6 °C 1036.1 hPa North 3.2 km/h 3.2 km/h 67 % 0 mm
18:15 -5.7 °C -10.6 °C 1036.1 hPa North 1.6 km/h 4.8 km/h 68 % 0 mm
18:30 -5.8 °C -10.6 °C 1036.1 hPa Calm   3.2 km/h 69 % 0 mm
18:45 -5.9 °C -10.6 °C 1036.1 hPa Calm   3.2 km/h 70 % 0 mm
19:00 -6.2 °C -10.6 °C 1036.1 hPa Calm   4.8 km/h 71 % 0 mm
19:15 -6.3 °C -10.6 °C 1036.1 hPa Calm     71 % 0 mm
19:30 -6.5 °C -10.6 °C 1036.1 hPa Calm     72 % 0 mm
19:45 -6.7 °C -10.6 °C 1035.8 hPa Calm   1.6 km/h 73 % 0 mm
20:00 -6.9 °C -11.1 °C 1035.8 hPa Calm     73 % 0 mm
20:15 -7.1 °C -11.1 °C 1035.8 hPa Calm     74 % 0 mm
20:30 -7.2 °C -11.1 °C 1035.8 hPa Calm     75 % 0 mm
20:45 -7.3 °C -11.1 °C 1035.4 hPa Calm     76 % 0 mm
21:00 -7.4 °C -10.6 °C 1035.1 hPa Calm     77 % 0 mm
21:15 -7.6 °C -11.1 °C 1035.1 hPa Calm     77 % 0 mm
21:30 -7.7 °C -11.1 °C 1035.1 hPa Calm   3.2 km/h 78 % 0 mm
21:45 -7.8 °C -10.6 °C 1035.4 hPa Calm     79 % 0 mm
22:00 -7.9 °C -11.1 °C 1035.4 hPa Calm     79 % 0 mm
22:15 -8 °C -11.1 °C 1035.1 hPa Calm     79 % 0 mm
22:30 -8.2 °C -11.1 °C 1035.1 hPa Calm     79 % 0 mm
22:45 -8.4 °C -11.7 °C 1035.1 hPa Calm     79 % 0 mm
23:00 -8.6 °C -11.7 °C 1035.1 hPa Calm     80 % 0 mm
23:15 -8.8 °C -11.7 °C 1035.1 hPa Calm     81 % 0 mm
23:30 -8.9 °C -11.7 °C 1034.8 hPa Calm   1.6 km/h 82 % 0 mm
23:45 -9 °C -11.7 °C 1034.8 hPa Calm   1.6 km/h 82 % 0 mm
Des Moines Weather and Climate
Compliments of Weather Underground - 3 mb

Script developed by  Jim McMurry - jmcmurry@mwt.net Adapted for the template by  Wim van der Kuil - Leuven-Template.eu

You find our weather info also at:

Weather Underground

Equipment we use:

Weather-station
Davis VP2 Plus

Weather-program
Davis Weatherlink.Com

Weather-server
iMac (Retina 4K, 21.5-inch, Late 2015)

Provider
Hostmonster.com

Davis VP2 Plus

Davis Weatherlink.Com

iMac (Retina 4K, 21.5-inch, Late 2015)

Hostmonster.com